Cal Poly University, California
Current Conditions -  °F | °C
As of 7:56 PM on Tuesday 25 Nov 2014 (Local Time) from KSBP Reporting Station
Clear Clear  
Wind Chill: 56°   Ceiling: Unl
Heat Index: 56°   Visibility: 10mi
Dew Point: 27°   Wind: 6mph
Humidity: 33%   Direction: 110°ESE
Pressure: 30.3"   Gusts: NA
Location:  35.2979°N, 120.659°W
Report Text: KSBP 260356Z 11005KT 10SM CLR 13/M03 A3030 RMK AO2 SLP262 T01331028
Loading
Personal Weather Stations






























Interactive Weather Map New forecast layout! Learn more

10-Day Weather Forecast

Advertisements
Track Severe Weather on mobile